Time;durP1;ratioP1;P1;durP2;ratioP2;P2;SDS_P1;SDS_P2;PMS_P1;PMS_P2;Temp;Humidity;BMP_temperature;BMP_pressure;BME280_temperature;BME280_humidity;BME280_pressure;Samples;Min_cycle;Max_cycle;Signal;HPM_P1;HPM_P2
2022/11/23 00:04:03;;;;;;;37.38;22.45;;;;;;;6.34;100.00;99528.88;10566839;28;20035;-71
2022/11/23 00:09:04;;;;;;;34.13;23.13;;;;;;;6.33;100.00;99519.06;10583992;27;20032;-70
2022/11/23 00:14:05;;;;;;;37.75;22.92;;;;;;;6.43;100.00;99530.91;10566647;27;20051;-70
2022/11/23 00:19:05;;;;;;;38.45;22.67;;;;;;;6.33;100.00;99513.59;10583385;27;20039;-70
2022/11/23 00:24:06;;;;;;;42.83;23.83;;;;;;;6.42;100.00;99521.03;10582647;27;20039;-70
2022/11/23 00:29:06;;;;;;;37.78;22.50;;;;;;;6.43;100.00;99528.16;10584841;27;20039;-71
2022/11/23 00:34:07;;;;;;;40.08;24.30;;;;;;;6.47;100.00;99525.75;10583228;27;20063;-70
2022/11/23 00:39:07;;;;;;;41.22;25.48;;;;;;;6.45;100.00;99528.72;10582843;27;20028;-69
2022/11/23 00:44:08;;;;;;;42.72;25.77;;;;;;;6.39;100.00;99516.09;10584225;27;20070;-70
2022/11/23 00:49:08;;;;;;;40.60;25.65;;;;;;;6.46;100.00;99530.38;10582412;27;20040;-69
2022/11/23 00:54:09;;;;;;;40.35;24.63;;;;;;;6.51;100.00;99532.34;10585163;27;20574;-70
2022/11/23 00:59:09;;;;;;;42.22;23.48;;;;;;;6.53;100.00;99541.09;10582445;28;20075;-70
2022/11/23 01:04:10;;;;;;;45.15;24.90;;;;;;;6.53;100.00;99543.84;10581729;27;20032;-69
2022/11/23 01:09:12;;;;;;;39.83;23.25;;;;;;;6.54;100.00;99542.75;10583606;27;20048;-69
2022/11/23 01:14:12;;;;;;;43.83;23.48;;;;;;;6.53;100.00;99527.44;10581165;27;20044;-70
2022/11/23 01:19:17;;;;;;;40.05;24.48;;;;;;;6.47;100.00;99520.28;10581749;27;20040;-70
2022/11/23 01:24:20;;;;;;;38.50;24.67;;;;;;;6.58;100.00;99540.31;10582112;27;20047;-69
2022/11/23 01:29:21;;;;;;;41.33;24.48;;;;;;;6.56;100.00;99529.63;10564723;27;20096;-70
2022/11/23 01:34:22;;;;;;;44.35;25.42;;;;;;;6.62;100.00;99545.00;10564216;27;20059;-70
2022/11/23 01:39:22;;;;;;;40.45;23.90;;;;;;;6.59;100.00;99540.03;10580689;28;20031;-69
2022/11/23 01:44:24;;;;;;;43.53;24.17;;;;;;;6.62;100.00;99542.25;10580095;27;20050;-69
2022/11/23 01:49:25;;;;;;;41.88;25.70;;;;;;;6.63;100.00;99549.38;10581297;28;20047;-70
2022/11/23 01:54:35;;;;;;;41.33;23.20;;;;;;;6.64;100.00;99548.28;10581049;28;20052;-69
2022/11/23 01:59:35;;;;;;;41.60;25.15;;;;;;;6.67;100.00;99552.41;10547114;28;20044;-70
2022/11/23 02:04:38;;;;;;;48.13;24.55;;;;;;;6.64;100.00;99545.56;10580432;28;20031;-69
2022/11/23 02:09:38;;;;;;;46.20;26.50;;;;;;;6.57;100.00;99534.00;10581028;27;20490;-70
2022/11/23 02:14:39;;;;;;;49.13;26.15;;;;;;;6.64;100.00;99553.75;10579054;28;20043;-70
2022/11/23 02:20:08;;;;;;;49.30;25.42;;;;;;;6.71;100.00;99556.28;10582332;28;20034;-69
2022/11/23 02:25:12;;;;;;;48.20;25.83;;;;;;;6.71;100.00;99564.47;10579218;27;20039;-70
2022/11/23 02:30:13;;;;;;;47.30;25.00;;;;;;;6.69;100.00;99552.16;10563100;27;20074;-69
2022/11/23 02:35:14;;;;;;;45.35;26.08;;;;;;;6.72;100.00;99554.34;10581761;27;20092;-71
2022/11/23 02:40:26;;;;;;;41.13;24.42;;;;;;;6.56;100.00;99528.81;10578787;28;20043;-70
2022/11/23 02:45:44;;;;;;;42.40;25.02;;;;;;;6.65;100.00;99557.31;10582070;28;20031;-70
2022/11/23 02:50:45;;;;;;;43.17;24.17;;;;;;;6.76;100.00;99566.44;10580167;28;20032;-70
2022/11/23 02:55:45;;;;;;;46.25;25.67;;;;;;;6.73;100.00;99562.31;10568758;27;20035;-70
2022/11/23 03:00:46;;;;;;;44.47;24.50;;;;;;;6.76;100.00;99569.16;10585752;27;20034;-70
2022/11/23 03:05:46;;;;;;;43.85;25.60;;;;;;;6.51;100.00;99526.88;10587939;27;20050;-70
2022/11/23 03:10:47;;;;;;;41.10;25.08;;;;;;;6.77;100.00;99573.56;10586613;27;20042;-69
2022/11/23 03:15:47;;;;;;;44.45;24.67;;;;;;;6.77;100.00;99574.38;10569357;27;20032;-69
2022/11/23 03:20:47;;;;;;;45.90;24.73;;;;;;;6.69;100.00;99561.19;10588877;27;20032;-69
2022/11/23 03:25:57;;;;;;;46.72;26.35;;;;;;;6.79;100.00;99572.22;10568741;27;20394;-70
2022/11/23 03:30:57;;;;;;;48.60;26.00;;;;;;;6.82;100.00;99582.66;10587083;27;20085;-70
2022/11/23 03:35:58;;;;;;;52.63;25.70;;;;;;;6.47;100.00;99537.50;10587274;27;20032;-70
2022/11/23 03:40:58;;;;;;;47.88;26.15;;;;;;;6.75;100.00;99592.97;10588011;27;20479;-71
2022/11/23 03:45:59;;;;;;;44.63;26.13;;;;;;;6.79;100.00;99590.53;10585824;27;20035;-70
2022/11/23 03:50:59;;;;;;;44.47;25.65;;;;;;;6.67;100.00;99569.63;10584755;27;20096;-70
2022/11/23 03:56:00;;;;;;;45.55;26.45;;;;;;;6.80;100.00;99601.22;10584998;27;20040;-71
2022/11/23 04:01:00;;;;;;;47.20;25.02;;;;;;;6.81;100.00;99600.13;10584418;27;20421;-71
2022/11/23 04:06:01;;;;;;;46.83;24.42;;;;;;;6.84;100.00;99610.56;10586423;27;20047;-70
2022/11/23 04:11:01;;;;;;;50.55;25.55;;;;;;;6.77;100.00;99598.19;10585598;27;20043;-71
2022/11/23 04:16:02;;;;;;;44.78;26.10;;;;;;;6.73;100.00;99591.56;10584714;27;20036;-69
2022/11/23 04:21:02;;;;;;;46.38;24.20;;;;;;;6.46;100.00;99554.16;10584093;27;20043;-70
2022/11/23 04:26:03;;;;;;;46.42;25.10;;;;;;;6.77;100.00;99609.13;10584236;27;20091;-70
2022/11/23 04:31:04;;;;;;;43.80;24.58;;;;;;;6.74;100.00;99607.75;10566175;27;20062;-70
2022/11/23 04:36:04;;;;;;;45.15;24.00;;;;;;;6.76;100.00;99604.72;10583697;27;20030;-71
2022/11/23 04:41:05;;;;;;;48.28;23.42;;;;;;;6.74;100.00;99601.41;10566836;27;20051;-71
2022/11/23 04:46:05;;;;;;;50.88;23.75;;;;;;;6.74;100.00;99609.63;10583064;28;20353;-71
2022/11/23 04:51:06;;;;;;;51.15;24.15;;;;;;;6.73;100.00;99606.06;10584412;27;20027;-71
2022/11/23 04:56:06;;;;;;;49.15;23.80;;;;;;;6.40;100.00;99549.72;10582221;27;20027;-71
2022/11/23 05:01:07;;;;;;;48.30;24.58;;;;;;;6.72;100.00;99588.03;10565334;27;20075;-71
2022/11/23 05:06:08;;;;;;;48.95;25.08;;;;;;;6.71;100.00;99597.31;10581024;27;20032;-70
2022/11/23 05:11:09;;;;;;;53.08;25.17;;;;;;;6.65;100.00;99588.22;10584316;27;20118;-70
2022/11/23 05:16:10;;;;;;;54.58;26.92;;;;;;;6.70;100.00;99600.28;10564659;27;20032;-70
2022/11/23 05:21:10;;;;;;;57.58;25.23;;;;;;;6.64;100.00;99594.78;10580820;28;20057;-71
2022/11/23 05:26:11;;;;;;;57.20;26.27;;;;;;;6.71;100.00;99607.44;10580615;28;20047;-71
2022/11/23 05:31:11;;;;;;;62.55;26.58;;;;;;;6.81;100.00;99619.28;10564360;28;20040;-71
2022/11/23 05:36:12;;;;;;;61.47;26.23;;;;;;;6.75;100.00;99614.03;10581446;27;20058;-71
2022/11/23 05:41:13;;;;;;;56.10;25.35;;;;;;;6.80;100.00;99625.84;10581212;27;20535;-70
2022/11/23 05:46:13;;;;;;;58.20;26.45;;;;;;;6.79;100.00;99629.66;10582983;27;20084;-70
2022/11/23 05:51:14;;;;;;;62.42;25.83;;;;;;;6.80;100.00;99625.00;10581974;28;20042;-71
2022/11/23 05:56:14;;;;;;;58.78;25.65;;;;;;;6.79;100.00;99626.91;10580473;28;20055;-70
2022/11/23 06:01:15;;;;;;;63.05;26.55;;;;;;;6.83;100.00;99630.78;10579837;28;20055;-71
2022/11/23 06:06:15;;;;;;;60.80;24.90;;;;;;;6.86;100.00;99633.00;10582220;28;20044;-70
2022/11/23 06:11:16;;;;;;;65.20;25.10;;;;;;;6.72;100.00;99603.59;10581069;28;20050;-70
2022/11/23 06:16:16;;;;;;;55.83;24.33;;;;;;;6.83;100.00;99632.69;10581485;27;20042;-70
2022/11/23 06:21:17;;;;;;;56.33;25.23;;;;;;;6.73;100.00;99635.34;10579406;28;20035;-71
2022/11/23 06:26:17;;;;;;;55.92;22.50;;;;;;;6.67;100.00;99646.22;10578932;28;20115;-69
2022/11/23 06:31:18;;;;;;;59.05;25.55;;;;;;;6.65;100.00;99650.31;10589972;27;20031;-70
2022/11/23 06:36:19;;;;;;;53.35;22.00;;;;;;;6.59;100.00;99652.16;10588849;27;20065;-71
2022/11/23 06:41:19;;;;;;;55.85;23.77;;;;;;;6.25;100.00;99599.59;10590190;27;20225;-71
2022/11/23 06:46:20;;;;;;;51.33;22.45;;;;;;;6.45;100.00;99638.09;10588074;27;20063;-71
2022/11/23 06:51:20;;;;;;;54.75;22.75;;;;;;;6.43;100.00;99653.09;10586875;27;20059;-70
2022/11/23 06:56:21;;;;;;;50.65;22.10;;;;;;;6.23;100.00;99638.09;10570138;27;20051;-71
2022/11/23 07:01:21;;;;;;;60.55;21.92;;;;;;;6.31;100.00;99663.34;10570277;27;20061;-71
2022/11/23 07:06:22;;;;;;;48.38;20.58;;;;;;;6.28;100.00;99674.78;10586776;27;20036;-70
2022/11/23 07:11:22;;;;;;;48.65;21.55;;;;;;;6.34;100.00;99680.03;10589008;27;20631;-71
2022/11/23 07:16:23;;;;;;;49.28;21.65;;;;;;;6.38;100.00;99681.19;10561602;28;20032;-70
2022/11/23 07:21:23;;;;;;;46.53;19.85;;;;;;;6.42;100.00;99684.25;10543862;28;20040;-71
2022/11/23 07:26:23;;;;;;;45.35;18.48;;;;;;;6.53;100.00;99702.44;10560715;28;20058;-71
2022/11/23 07:31:24;;;;;;;49.67;18.60;;;;;;;6.56;100.00;99707.38;10544880;28;20520;-72
2022/11/23 07:36:24;;;;;;;37.42;16.33;;;;;;;6.52;100.00;99698.03;10547593;28;20487;-71
2022/11/23 07:41:26;;;;;;;33.80;15.13;;;;;;;6.61;100.00;99710.16;10586251;27;20487;-71
2022/11/23 07:46:26;;;;;;;36.10;14.52;;;;;;;6.58;100.00;99718.88;10587248;27;20040;-70
2022/11/23 07:51:28;;;;;;;29.48;12.90;;;;;;;6.67;100.00;99725.53;10584534;27;20031;-71
2022/11/23 07:56:28;;;;;;;31.88;13.43;;;;;;;6.72;100.00;99729.41;10584433;27;20099;-71
2022/11/23 08:01:30;;;;;;;32.65;11.40;;;;;;;6.73;100.00;99720.13;10586704;27;20059;-70
2022/11/23 08:06:30;;;;;;;39.55;12.23;;;;;;;6.77;100.00;99740.41;10584147;27;20401;-70
2022/11/23 08:11:31;;;;;;;31.13;12.27;;;;;;;6.81;100.00;99738.81;10586304;27;20065;-71
2022/11/23 08:16:31;;;;;;;28.52;11.60;;;;;;;6.83;100.00;99732.00;10586037;27;20024;-71
2022/11/23 08:21:32;;;;;;;34.25;12.73;;;;;;;6.77;100.00;99721.28;10583283;27;20035;-70
2022/11/23 08:26:32;;;;;;;33.65;12.55;;;;;;;6.92;100.00;99739.75;10583013;27;20039;-67
2022/11/23 08:31:33;;;;;;;22.23;11.15;;;;;;;6.98;100.00;99736.81;10583899;27;21462;-70
2022/11/23 08:36:33;;;;;;;27.83;11.27;;;;;;;7.02;100.00;99740.66;10586108;27;20042;-70
2022/11/23 08:41:34;;;;;;;21.48;11.10;;;;;;;7.11;100.00;99738.31;10583662;27;20032;-70
2022/11/23 08:46:34;;;;;;;25.50;11.02;;;;;;;7.20;100.00;99749.63;10582332;27;20031;-71
2022/11/23 08:51:35;;;;;;;33.22;10.55;;;;;;;7.27;100.00;99744.75;10581130;27;20099;-71
2022/11/23 08:56:35;;;;;;;22.10;10.43;;;;;;;7.38;100.00;99751.97;10547477;27;20035;-71
2022/11/23 09:01:35;;;;;;;25.65;9.57;;;;;;;7.48;100.00;99738.38;10581630;27;20035;-70
2022/11/23 09:06:36;;;;;;;25.75;9.68;;;;;;;7.48;100.00;99716.47;10583407;27;20097;-70
2022/11/23 09:11:36;;;;;;;22.55;9.02;;;;;;;7.74;100.00;99744.03;10584360;27;20100;-69
2022/11/23 09:16:37;;;;;;;22.73;9.15;;;;;;;7.77;100.00;99729.81;10584123;27;20047;-71
2022/11/23 09:21:38;;;;;;;21.70;8.68;;;;;;;7.81;100.00;99725.44;10564298;27;20084;-70
2022/11/23 09:26:39;;;;;;;21.45;8.05;;;;;;;7.89;100.00;99738.63;10550689;28;20040;-71
2022/11/23 09:31:39;;;;;;;22.58;8.30;;;;;;;7.86;100.00;99717.25;10545664;28;20032;-70
2022/11/23 09:36:40;;;;;;;19.70;8.32;;;;;;;7.98;100.00;99724.44;10526065;28;20081;-70
2022/11/23 09:42:18;;;;;;;19.80;7.82;;;;;;;8.09;100.00;99743.41;10592593;27;20386;-70
2022/11/23 09:47:31;;;;;;;16.65;6.70;;;;;;;8.12;100.00;99739.31;10619328;27;20043;-71
2022/11/23 09:52:32;;;;;;;16.30;6.57;;;;;;;8.07;100.00;99728.34;10616473;27;20414;-70
2022/11/23 09:57:33;;;;;;;23.67;6.70;;;;;;;8.05;100.00;99722.28;10585736;28;20061;-70
2022/11/23 10:02:38;;;;;;;15.23;6.05;;;;;;;8.25;100.00;99733.38;10539431;28;20461;-69
2022/11/23 10:08:12;;;;;;;16.73;6.57;;;;;;;8.39;100.00;99735.59;10565010;28;20049;-70
2022/11/23 10:13:27;;;;;;;19.08;6.22;;;;;;;8.31;100.00;99728.75;10482313;28;20052;-70
2022/11/23 10:18:50;;;;;;;20.00;6.38;;;;;;;8.28;100.00;99727.34;10554133;28;20085;-70
2022/11/23 10:24:19;;;;;;;16.52;4.50;;;;;;;8.06;100.00;99685.56;10503435;27;20659;-70
2022/11/23 10:29:29;;;;;;;15.02;4.82;;;;;;;8.24;100.00;99711.69;10575166;27;20024;-70
2022/11/23 10:34:55;;;;;;;16.33;4.60;;;;;;;8.24;100.00;99712.50;10574401;27;20035;-70
2022/11/23 10:39:55;;;;;;;12.02;4.03;;;;;;;8.15;100.00;99694.94;10610877;27;20042;-70
2022/11/23 10:44:55;;;;;;;17.20;4.85;;;;;;;8.24;100.00;99707.03;10596409;27;20042;-71
2022/11/23 10:49:57;;;;;;;16.00;6.20;;;;;;;8.25;100.00;99708.69;10593304;27;20160;-70
2022/11/23 10:54:59;;;;;;;14.93;4.35;;;;;;;8.31;100.00;99705.94;10596163;27;20040;-71
2022/11/23 11:00:07;;;;;;;17.35;4.10;;;;;;;8.37;100.00;99702.13;10593216;27;20100;-70
2022/11/23 11:05:30;;;;;;;16.92;5.07;;;;;;;8.56;100.00;99719.81;10593567;27;20035;-71
2022/11/23 11:10:30;;;;;;;15.48;5.75;;;;;;;8.59;100.00;99719.25;10588505;27;20036;-70
2022/11/23 11:15:31;;;;;;;9.15;3.58;;;;;;;8.73;100.00;99705.03;10546418;28;20464;-69
2022/11/23 11:20:33;;;;;;;14.45;3.80;;;;;;;8.71;100.00;99707.22;10544688;28;20047;-70
2022/11/23 11:25:35;;;;;;;10.30;3.70;;;;;;;8.57;100.00;99698.69;10544008;28;20032;-70
2022/11/23 11:30:47;;;;;;;14.38;3.30;;;;;;;8.51;100.00;99700.56;10544209;28;20091;-72
2022/11/23 11:35:50;;;;;;;15.65;3.47;;;;;;;8.64;100.00;99694.59;10573913;27;20402;-71
2022/11/23 11:40:51;;;;;;;16.50;3.38;;;;;;;8.99;100.00;99681.19;10610093;27;20434;-71
2022/11/23 11:45:53;;;;;;;14.55;4.22;;;;;;;9.26;100.00;99669.94;10608471;27;20039;-72
2022/11/23 11:51:17;;;;;;;13.68;3.13;;;;;;;9.97;100.00;99665.44;10626159;27;20038;-71
2022/11/23 11:56:36;;;;;;;10.35;3.03;;;;;;;10.42;100.00;99652.63;10608345;27;20039;-72
2022/11/23 12:02:13;;;;;;;12.02;3.08;;;;;;;10.36;100.00;99629.00;10627294;27;20061;-71
2022/11/23 12:07:23;;;;;;;;;;;;;;;10.06;100.00;99631.56;10625166;27;20142;-71
2022/11/23 12:12:23;;;;;;;13.95;2.67;;;;;;;9.82;100.00;99620.41;10622728;27;20426;-70
2022/11/23 12:17:41;;;;;;;8.20;2.15;;;;;;;10.15;100.00;99623.56;10624819;27;20042;-71
2022/11/23 12:22:45;;;;;;;12.65;2.40;;;;;;;10.41;100.00;99620.72;10625756;27;20035;-71
2022/11/23 12:28:15;;;;;;;10.32;2.38;;;;;;;10.64;100.00;99625.50;10623406;27;20302;-71
2022/11/23 12:33:31;;;;;;;12.80;2.88;;;;;;;10.60;100.00;99616.19;10626704;27;20609;-71
2022/11/23 12:38:32;;;;;;;16.23;4.13;;;;;;;10.46;100.00;99612.44;10624150;27;20046;-71
2022/11/23 12:44:10;;;;;;;17.40;3.40;;;;;;;10.63;100.00;99626.63;10622855;27;20465;-71
2022/11/23 12:49:37;;;;;;;11.63;3.42;;;;;;;10.69;100.00;99621.94;10622988;27;20120;-70
2022/11/23 12:54:51;;;;;;;11.48;3.67;;;;;;;11.22;100.00;99626.72;10621386;27;20046;-71
2022/11/23 13:00:02;;;;;;;7.80;3.17;;;;;;;11.53;100.00;99630.00;10556685;28;20042;-71
2022/11/23 13:05:29;;;;;;;7.35;2.55;;;;;;;12.33;100.00;99623.03;10539917;28;20044;-71
2022/11/23 13:10:33;;;;;;;8.03;2.77;;;;;;;12.96;100.00;99621.84;10521419;27;20055;-70
2022/11/23 13:15:52;;;;;;;7.88;2.40;;;;;;;13.06;100.00;99629.97;10516488;27;20829;-71
2022/11/23 13:21:26;;;;;;;7.82;2.22;;;;;;;12.25;100.00;99641.06;10559479;27;20040;-70
2022/11/23 13:26:27;;;;;;;9.55;1.80;;;;;;;11.04;100.00;99626.34;10516817;27;20115;-71
2022/11/23 13:31:32;;;;;;;7.93;2.08;;;;;;;10.54;100.00;99642.09;10542315;27;20064;-70
2022/11/23 13:36:34;;;;;;;11.85;1.67;;;;;;;10.15;100.00;99636.47;10530692;27;20557;-70
2022/11/23 13:41:34;;;;;;;15.43;1.80;;;;;;;10.00;100.00;99648.38;10556059;27;20048;-71
2022/11/23 13:46:34;;;;;;;8.10;1.63;;;;;;;9.72;100.00;99645.16;10537696;27;20044;-71
2022/11/23 13:51:35;;;;;;;9.48;2.38;;;;;;;9.79;100.00;99631.94;10555850;28;20058;-70
2022/11/23 13:56:37;;;;;;;6.93;1.70;;;;;;;9.58;100.00;99609.19;10553989;27;20039;-70
2022/11/23 14:02:00;;;;;;;6.40;1.20;;;;;;;9.42;100.00;99608.41;10554767;28;20039;-69
2022/11/23 14:07:07;;;;;;;15.45;2.47;;;;;;;8.95;100.00;99551.06;10547998;28;20052;-69
2022/11/23 14:12:10;;;;;;;7.22;1.35;;;;;;;9.33;100.00;99604.59;10540326;28;20171;-69
2022/11/23 14:17:35;;;;;;;12.10;2.17;;;;;;;9.19;100.00;99603.50;10553329;27;20063;-69
2022/11/23 14:22:38;;;;;;;6.28;1.65;;;;;;;8.93;100.00;99606.28;10509014;28;20028;-70
2022/11/23 14:28:06;;;;;;;6.50;1.98;;;;;;;8.68;100.00;99613.38;10555023;28;20055;-70
2022/11/23 14:33:28;;;;;;;10.45;2.13;;;;;;;8.45;100.00;99622.97;10544932;28;20043;-70
2022/11/23 14:39:14;;;;;;;12.30;3.08;;;;;;;8.15;100.00;99626.41;10556066;28;20507;-70
2022/11/23 14:44:23;;;;;;;8.45;2.10;;;;;;;7.89;100.00;99617.25;10509158;28;20080;-69
2022/11/23 14:49:23;;;;;;;6.07;2.00;;;;;;;7.81;100.00;99637.78;10555809;27;20494;-69
2022/11/23 14:54:24;;;;;;;14.65;2.40;;;;;;;7.54;100.00;99607.75;10564847;27;20044;-69
2022/11/23 14:59:33;;;;;;;8.52;1.55;;;;;;;7.61;100.00;99632.19;10562169;27;20059;-69
2022/11/23 15:04:37;;;;;;;8.73;1.90;;;;;;;7.38;100.00;99609.59;10577926;27;20057;-69
2022/11/23 15:10:02;;;;;;;11.68;1.98;;;;;;;7.37;100.00;99624.34;10547938;27;20047;-69
2022/11/23 15:15:18;;;;;;;9.13;3.38;;;;;;;7.33;100.00;99636.09;10558427;27;20059;-69
2022/11/23 15:20:19;;;;;;;11.50;2.03;;;;;;;7.35;100.00;99642.97;10563302;27;20685;-70
2022/11/23 15:25:19;;;;;;;5.80;2.15;;;;;;;7.20;100.00;99642.84;10562816;27;20057;-69
2022/11/23 15:30:24;;;;;;;9.30;2.30;;;;;;;7.08;100.00;99646.59;10560526;27;20040;-69
2022/11/23 15:35:32;;;;;;;13.35;2.47;;;;;;;6.91;100.00;99662.31;10545210;28;20483;-69
2022/11/23 15:40:35;;;;;;;22.63;3.33;;;;;;;6.76;100.00;99654.81;10532403;28;21141;-69
2022/11/23 15:45:44;;;;;;;9.80;2.22;;;;;;;6.56;100.00;99671.00;10562272;27;20047;-69
2022/11/23 15:50:45;;;;;;;8.05;1.52;;;;;;;6.38;100.00;99691.31;10562800;27;20140;-69
2022/11/23 15:55:45;;;;;;;10.02;1.95;;;;;;;6.32;100.00;99698.63;10526618;28;20039;-69
2022/11/23 16:00:48;;;;;;;8.70;1.73;;;;;;;6.41;100.00;99694.38;10483578;28;20046;-69
2022/11/23 16:06:08;;;;;;;6.70;1.90;;;;;;;6.77;100.00;99705.69;10508621;28;20074;-69
2022/11/23 16:11:27;;;;;;;12.18;1.55;;;;;;;6.97;100.00;99698.78;10557464;28;20063;-69
2022/11/23 16:16:27;;;;;;;7.68;1.70;;;;;;;7.07;100.00;99687.91;10558566;28;20047;-69
2022/11/23 16:21:30;;;;;;;12.60;2.80;;;;;;;7.13;100.00;99680.56;10523111;28;20057;-69
2022/11/23 16:26:30;;;;;;;7.38;1.63;;;;;;;7.25;100.00;99694.91;10540656;28;20615;-69
2022/11/23 16:31:41;;;;;;;7.93;1.60;;;;;;;7.23;100.00;99694.34;10538013;28;20054;-69
2022/11/23 16:36:42;;;;;;;9.52;1.58;;;;;;;7.39;100.00;99704.31;10523258;28;20685;-69
2022/11/23 16:41:42;;;;;;;7.35;1.75;;;;;;;7.51;100.00;99706.88;10553406;28;20047;-69
2022/11/23 16:46:45;;;;;;;5.25;2.05;;;;;;;7.56;100.00;99717.03;10525888;28;20040;-71
2022/11/23 16:51:48;;;;;;;5.32;1.60;;;;;;;7.57;100.00;99718.72;10517894;28;20107;-71
2022/11/23 16:56:49;;;;;;;7.18;2.22;;;;;;;7.50;100.00;99712.63;10515761;28;20477;-71
2022/11/23 17:01:49;;;;;;;7.32;1.55;;;;;;;7.34;100.00;99704.28;10517096;28;20036;-71
2022/11/23 17:06:50;;;;;;;9.85;1.85;;;;;;;7.36;100.00;99691.16;10523147;28;20035;-71
2022/11/23 17:11:50;;;;;;;9.32;1.60;;;;;;;7.24;100.00;99693.25;10537469;28;20060;-71
2022/11/23 17:16:52;;;;;;;6.20;2.55;;;;;;;7.33;100.00;99702.63;10526336;28;20061;-71
2022/11/23 17:21:52;;;;;;;6.97;1.35;;;;;;;7.39;100.00;99712.53;10523111;28;20050;-69
2022/11/23 17:26:53;;;;;;;9.63;1.88;;;;;;;7.41;100.00;99721.31;10552821;28;20063;-72
2022/11/23 17:31:53;;;;;;;14.43;2.53;;;;;;;7.43;100.00;99713.66;10520456;28;20031;-71
2022/11/23 17:36:54;;;;;;;9.10;1.35;;;;;;;7.40;100.00;99708.72;10537181;28;20052;-71
2022/11/23 17:41:55;;;;;;;6.07;1.50;;;;;;;7.40;100.00;99714.19;10516527;28;20043;-71
2022/11/23 17:46:56;;;;;;;9.25;2.45;;;;;;;7.33;100.00;99719.06;10522973;28;20077;-71
2022/11/23 17:51:57;;;;;;;10.50;2.30;;;;;;;7.28;100.00;99721.75;10521636;28;20028;-71
2022/11/23 17:56:57;;;;;;;5.95;1.98;;;;;;;7.28;100.00;99746.41;10549509;27;20039;-71
2022/11/23 18:01:58;;;;;;;7.75;2.25;;;;;;;7.24;100.00;99745.28;10593213;28;20058;-72
2022/11/23 18:06:58;;;;;;;10.30;2.85;;;;;;;7.14;100.00;99758.88;10594311;28;20036;-70
2022/11/23 18:11:59;;;;;;;7.25;2.35;;;;;;;7.07;100.00;99765.38;10580097;28;20151;-71
2022/11/23 18:16:59;;;;;;;9.93;3.55;;;;;;;6.13;100.00;99632.53;10561926;28;20044;-71
2022/11/23 18:22:00;;;;;;;6.65;2.67;;;;;;;6.93;100.00;99780.53;10546046;28;20270;-70
2022/11/23 18:27:00;;;;;;;15.23;4.07;;;;;;;6.85;100.00;99784.56;10569071;28;20403;-71
2022/11/23 18:32:01;;;;;;;7.13;2.92;;;;;;;6.76;100.00;99791.56;10567581;27;20036;-70
2022/11/23 18:37:02;;;;;;;8.77;2.78;;;;;;;6.63;100.00;99784.56;10553253;28;20453;-70
2022/11/23 18:42:03;;;;;;;10.52;2.65;;;;;;;6.63;100.00;99790.03;10552740;28;20070;-71
2022/11/23 18:47:03;;;;;;;11.23;2.95;;;;;;;6.59;100.00;99802.56;10587253;28;20051;-71
2022/11/23 18:52:04;;;;;;;13.15;3.80;;;;;;;6.42;100.00;99793.59;10568633;28;20059;-71
2022/11/23 18:57:04;;;;;;;8.43;3.83;;;;;;;6.52;100.00;99809.31;10569015;28;20403;-71
2022/11/23 19:02:05;;;;;;;8.10;3.85;;;;;;;6.50;100.00;99817.78;10595091;27;20038;-71
2022/11/23 19:07:05;;;;;;;8.68;3.35;;;;;;;6.52;100.00;99826.56;10565377;28;20099;-70
2022/11/23 19:12:06;;;;;;;10.65;3.72;;;;;;;6.50;100.00;99833.34;10567505;28;20047;-70
2022/11/23 19:17:07;;;;;;;15.27;5.75;;;;;;;6.41;100.00;99822.03;10567302;28;20119;-72
2022/11/23 19:22:08;;;;;;;14.18;4.70;;;;;;;6.53;100.00;99830.94;10518822;28;20483;-71
2022/11/23 19:27:08;;;;;;;13.70;5.32;;;;;;;6.55;100.00;99839.72;10532672;27;20457;-71
2022/11/23 19:32:09;;;;;;;16.48;4.22;;;;;;;6.39;100.00;99824.19;10568510;28;20036;-71
2022/11/23 19:37:09;;;;;;;13.93;6.50;;;;;;;6.49;100.00;99848.09;10547567;28;20031;-72
2022/11/23 19:42:10;;;;;;;18.13;4.95;;;;;;;6.54;100.00;99854.47;10530455;28;20035;-69
2022/11/23 19:47:10;;;;;;;8.20;4.82;;;;;;;6.55;100.00;99858.03;10585960;28;20044;-71
2022/11/23 19:52:11;;;;;;;11.63;4.97;;;;;;;6.49;100.00;99851.69;10566326;28;20043;-72
2022/11/23 19:57:11;;;;;;;12.32;6.15;;;;;;;6.60;100.00;99867.13;10532791;28;20047;-72
2022/11/23 20:02:19;;;;;;;16.10;5.85;;;;;;;6.56;100.00;99867.91;10566727;28;20485;-72
2022/11/23 20:07:20;;;;;;;12.02;6.13;;;;;;;6.62;100.00;99881.38;10539527;28;20050;-72
2022/11/23 20:12:20;;;;;;;12.82;6.97;;;;;;;6.61;100.00;99870.69;10515147;28;20036;-72
2022/11/23 20:17:21;;;;;;;20.30;8.07;;;;;;;6.60;100.00;99863.56;10565067;28;20040;-72
2022/11/23 20:22:21;;;;;;;15.30;7.55;;;;;;;6.66;100.00;99893.47;10616558;27;20050;-72
2022/11/23 20:27:22;;;;;;;20.45;9.50;;;;;;;6.80;100.00;99907.63;10592082;27;20042;-71
2022/11/23 20:32:22;;;;;;;18.75;8.20;;;;;;;6.76;100.00;99900.16;10588586;27;20039;-72
2022/11/23 20:37:23;;;;;;;16.88;8.70;;;;;;;6.55;100.00;99878.00;10619290;27;20050;-72
2022/11/23 20:42:23;;;;;;;19.17;9.45;;;;;;;6.79;100.00;99905.94;10619010;27;20043;-70
2022/11/23 20:47:26;;;;;;;16.25;9.35;;;;;;;6.68;100.00;99890.50;10604744;27;20038;-71
2022/11/23 20:52:27;;;;;;;20.25;10.82;;;;;;;6.77;100.00;99908.09;10601430;27;20046;-71
2022/11/23 20:57:27;;;;;;;22.67;11.10;;;;;;;6.83;100.00;99922.69;10564193;28;20039;-71
2022/11/23 21:02:28;;;;;;;25.88;11.90;;;;;;;6.94;100.00;99932.69;10550527;27;20038;-71
2022/11/23 21:07:28;;;;;;;20.00;11.90;;;;;;;6.94;100.00;99946.34;10579011;27;20043;-71
2022/11/23 21:17:48;;;;;;;22.50;12.77;;;;;;;6.86;100.00;99955.00;10619565;27;20149;-71
2022/11/23 21:22:49;;;;;;;20.88;13.20;;;;;;;6.81;100.00;99947.56;10554726;27;20063;-71
2022/11/23 21:27:49;;;;;;;22.63;12.88;;;;;;;6.87;100.00;99959.41;10566572;27;20065;-73
2022/11/23 21:32:50;;;;;;;22.05;14.02;;;;;;;6.95;100.00;99964.44;10551615;27;20042;-73
2022/11/23 21:37:50;;;;;;;23.48;13.48;;;;;;;6.94;100.00;99971.00;10601666;27;20084;-72
2022/11/23 21:42:51;;;;;;;22.33;14.40;;;;;;;6.94;100.00;99971.00;10600678;27;20042;-72
2022/11/23 21:47:53;;;;;;;24.40;14.38;;;;;;;6.87;100.00;99978.56;10569718;27;20032;-73
2022/11/23 21:52:53;;;;;;;24.05;13.63;;;;;;;6.86;100.00;99975.00;10603789;27;20524;-73
2022/11/23 21:57:54;;;;;;;26.27;14.52;;;;;;;6.78;100.00;99960.91;10586181;27;20042;-73
2022/11/23 22:02:54;;;;;;;23.58;14.13;;;;;;;6.97;100.00;99980.63;10587329;28;20038;-73
2022/11/23 22:07:55;;;;;;;22.70;15.05;;;;;;;7.01;100.00;99996.28;10603458;28;20039;-73
2022/11/23 22:12:55;;;;;;;25.15;15.70;;;;;;;7.02;100.00;100003.41;10621710;28;20040;-73
2022/11/23 22:17:56;;;;;;;24.88;14.27;;;;;;;6.69;100.00;99956.97;10619237;28;20031;-73
2022/11/23 22:22:56;;;;;;;26.65;14.00;;;;;;;7.01;100.00;100012.69;10611288;28;20040;-72
2022/11/23 22:27:57;;;;;;;24.65;13.45;;;;;;;7.07;100.00;100033.59;10544497;28;20053;-73
2022/11/23 22:32:57;;;;;;;23.90;13.10;;;;;;;7.03;100.00;100039.81;10579980;28;20040;-73
2022/11/23 22:37:58;;;;;;;19.52;13.25;;;;;;;6.93;100.00;100028.72;10581165;28;20032;-72
2022/11/23 22:42:59;;;;;;;23.65;14.55;;;;;;;6.91;100.00;100037.19;10585105;28;20053;-72
2022/11/23 22:47:59;;;;;;;26.17;14.30;;;;;;;6.92;100.00;100051.69;10620459;28;20023;-72
2022/11/23 22:52:59;;;;;;;27.00;15.20;;;;;;;6.74;100.00;100047.28;10603466;28;20067;-71
2022/11/23 22:58:00;;;;;;;26.23;15.70;;;;;;;6.64;100.00;100046.06;10601628;28;20046;-72
2022/11/23 23:03:00;;;;;;;28.98;16.08;;;;;;;6.25;100.00;100017.78;10585951;28;21727;-72
2022/11/23 23:08:01;;;;;;;27.98;13.57;;;;;;;6.34;100.00;100040.06;10601270;27;20031;-71
2022/11/23 23:13:01;;;;;;;32.53;15.52;;;;;;;6.30;100.00;100067.06;10592190;27;20046;-72
2022/11/23 23:18:02;;;;;;;27.88;16.35;;;;;;;6.05;100.00;100037.38;10626998;27;20031;-72